Terminal Aerodrome Forecast
Issued by NWS

Home | Current Version | Previous Version | Text Only | Print | Product List | Glossary On
Versions: 1 2 3 4 5 6 7 8 9 10 11 12 13 14 15 16 17
062
FTPA31 PHFO 092343
TAFHKO
TAF
PHKO 092343Z 1000/1024 23008KT P6SM SCT060
     FM100200 VRB03KT P6SM BKN060
     FM100900 10006KT P6SM FEW060
     FM101900 23008KT P6SM SCT060
      AMD NOT SKED=

USA.gov is the U.S. government's official web portal to all federal, state and local government web resources and services.